Time;durP1;ratioP1;P1;durP2;ratioP2;P2;SDS_P1;SDS_P2;PMS_P1;PMS_P2;Temp;Humidity;BMP_temperature;BMP_pressure;BME280_temperature;BME280_humidity;BME280_pressure;Samples;Min_cycle;Max_cycle;Signal;HPM_P1;HPM_P2
2022/09/19 00:00:40;;;;;;;9.00;4.67;;;;;;;6.84;100.00;96128.31;5069072;28;20863;-75
2022/09/19 00:03:06;;;;;;;9.63;2.70;;;;;;;6.81;100.00;96125.97;5051646;28;20748;-75
2022/09/19 00:05:33;;;;;;;3.33;1.10;;;;;;;6.83;100.00;96131.88;5063402;28;20119;-75
2022/09/19 00:07:58;;;;;;;4.20;1.60;;;;;;;6.85;100.00;96129.97;5068860;28;20036;-75
2022/09/19 00:10:25;;;;;;;2.67;0.70;;;;;;;6.77;100.00;96129.84;5068334;28;20031;-75
2022/09/19 00:12:55;;;;;;;2.20;1.00;;;;;;;6.75;100.00;96134.38;5070460;28;20032;-75
2022/09/19 00:15:22;;;;;;;0.83;0.50;;;;;;;6.84;100.00;96133.53;5069151;28;20036;-75
2022/09/19 00:17:50;;;;;;;1.13;0.53;;;;;;;6.73;100.00;96144.13;5062443;28;20157;-75
2022/09/19 00:20:16;;;;;;;2.17;0.90;;;;;;;6.67;100.00;96147.28;5060774;28;20481;-75
2022/09/19 00:24:45;;;;;;;1.73;0.63;;;;;;;6.73;100.00;96149.34;5069767;28;20056;-76
2022/09/19 00:25:28;;;;;;;1.83;0.40;;;;;;;6.75;100.00;96146.63;5061926;28;20055;-75
2022/09/19 00:27:54;;;;;;;0.60;0.33;;;;;;;6.72;100.00;96152.94;5048476;28;20033;-75
2022/09/19 00:30:20;;;;;;;1.83;1.03;;;;;;;6.58;100.00;96159.41;5062054;28;20083;-75
2022/09/19 00:32:46;;;;;;;1.73;1.00;;;;;;;6.56;100.00;96157.88;5070302;28;20020;-75
2022/09/19 00:35:12;;;;;;;1.17;0.50;;;;;;;6.54;100.00;96158.03;5068611;28;20029;-75
2022/09/19 00:37:38;;;;;;;0.53;0.30;;;;;;;6.47;100.00;96154.31;5050368;28;20094;-75
2022/09/19 00:40:05;;;;;;;0.10;0.10;;;;;;;6.43;100.00;96155.50;5060553;28;20028;-75
2022/09/19 00:42:33;;;;;;;0.30;0.20;;;;;;;6.38;100.00;96168.16;5070221;28;20497;-75
2022/09/19 00:45:03;;;;;;;0.63;0.20;;;;;;;6.30;100.00;96161.00;5068923;28;20086;-75
2022/09/19 00:47:39;;;;;;;0.30;0.20;;;;;;;6.22;100.00;96150.41;5066455;28;20025;-75
2022/09/19 00:50:10;;;;;;;0.27;0.20;;;;;;;6.14;100.00;96163.31;5063674;28;20478;-75
2022/09/19 00:52:58;;;;;;;0.37;0.20;;;;;;;6.12;100.00;96171.25;5063175;28;20039;-75
2022/09/19 00:55:24;;;;;;;0.10;0.10;;;;;;;6.05;100.00;96190.22;5065403;28;20569;-75
2022/09/19 00:58:14;;;;;;;0.93;0.30;;;;;;;6.01;100.00;96181.00;5062300;28;20167;-75
2022/09/19 01:00:39;;;;;;;0.30;0.20;;;;;;;5.96;100.00;96186.59;5067024;28;20053;-75
2022/09/19 01:03:09;;;;;;;0.50;0.20;;;;;;;5.94;100.00;96183.31;5047383;28;20037;-75
2022/09/19 01:05:56;;;;;;;0.40;0.30;;;;;;;5.91;100.00;96180.94;5067109;28;20505;-75
2022/09/19 01:08:28;;;;;;;7.43;0.73;;;;;;;5.82;100.00;96185.13;5069994;28;20039;-75
2022/09/19 01:11:15;;;;;;;2.13;0.40;;;;;;;5.83;100.00;96194.59;5059140;28;20089;-75
2022/09/19 01:14:01;;;;;;;1.03;0.27;;;;;;;5.83;100.00;96188.56;5054142;28;20040;-75
2022/09/19 01:16:54;;;;;;;0.90;0.20;;;;;;;5.76;100.00;96187.44;5060218;28;20028;-75
2022/09/19 01:19:59;;;;;;;0.60;0.10;;;;;;;5.75;100.00;96191.03;5056674;28;20037;-75
2022/09/19 01:22:46;;;;;;;0.90;0.20;;;;;;;5.71;100.00;96202.69;5047915;28;20119;-75
2022/09/19 01:25:35;;;;;;;0.93;0.20;;;;;;;5.71;100.00;96200.06;5051022;28;20032;-75
2022/09/19 01:28:35;;;;;;;0.47;0.10;;;;;;;5.64;100.00;96204.97;5066146;28;20032;-74
2022/09/19 01:31:19;;;;;;;1.20;0.30;;;;;;;5.62;100.00;96204.28;5054590;28;20053;-75
2022/09/19 01:34:02;;;;;;;1.63;0.30;;;;;;;5.58;100.00;96200.28;5050938;28;20047;-75
2022/09/19 01:36:35;;;;;;;2.27;0.47;;;;;;;5.59;100.00;96199.31;5052347;28;20052;-75
2022/09/19 01:39:03;;;;;;;1.60;0.30;;;;;;;5.54;100.00;96201.50;5069227;28;20024;-75
2022/09/19 01:41:34;;;;;;;1.15;0.50;;;;;;;5.47;100.00;96197.75;5066894;28;20024;-75
2022/09/19 01:44:05;;;;;;;1.60;0.30;;;;;;;5.42;100.00;96204.16;5066339;28;20028;-75
2022/09/19 01:46:57;;;;;;;2.60;0.60;;;;;;;5.35;100.00;96197.81;5067315;28;20044;-75
2022/09/19 01:49:31;;;;;;;1.67;0.57;;;;;;;5.32;100.00;96198.06;5059444;28;20036;-75
2022/09/19 01:52:15;;;;;;;3.20;0.85;;;;;;;5.29;100.00;96211.34;5052475;28;20087;-75
2022/09/19 01:54:54;;;;;;;2.23;0.40;;;;;;;5.25;100.00;96203.91;5045215;28;20043;-75
2022/09/19 01:57:31;;;;;;;11.27;1.83;;;;;;;5.28;100.00;96208.88;5066634;28;20040;-75
2022/09/19 02:00:02;;;;;;;1.80;0.77;;;;;;;5.24;100.00;96210.91;5054743;28;20086;-75
2022/09/19 02:02:56;;;;;;;8.87;1.10;;;;;;;5.18;100.00;96209.63;5069934;28;20067;-75
2022/09/19 02:05:38;;;;;;;2.28;0.52;;;;;;;5.20;100.00;96212.13;5068881;28;20028;-75
2022/09/19 02:08:30;;;;;;;2.37;0.60;;;;;;;5.20;100.00;96217.34;5068710;28;20064;-75
2022/09/19 02:11:18;;;;;;;3.43;0.90;;;;;;;5.23;100.00;96218.84;5049366;28;20036;-75
2022/09/19 02:13:53;;;;;;;2.47;0.83;;;;;;;5.22;100.00;96219.81;5062872;28;20033;-75
2022/09/19 02:16:40;;;;;;;5.17;1.00;;;;;;;5.21;100.00;96216.38;5031640;28;20025;-75
2022/09/19 02:19:16;;;;;;;2.30;1.10;;;;;;;5.18;100.00;96214.84;5066530;28;20489;-75
2022/09/19 02:21:51;;;;;;;2.57;1.23;;;;;;;5.29;100.00;96205.31;5068431;28;20040;-75
2022/09/19 02:24:27;;;;;;;4.03;0.70;;;;;;;5.28;100.00;96212.31;5058473;28;20492;-74
2022/09/19 02:26:58;;;;;;;2.60;0.63;;;;;;;5.34;100.00;96222.22;5058628;28;20036;-75
2022/09/19 02:29:30;;;;;;;7.80;1.60;;;;;;;5.41;100.00;96215.53;5062225;28;20028;-75
2022/09/19 02:31:57;;;;;;;4.20;1.10;;;;;;;5.37;100.00;96218.56;5059760;28;20032;-75
2022/09/19 02:34:24;;;;;;;1.10;0.60;;;;;;;5.42;100.00;96221.59;5068002;28;20044;-75
2022/09/19 02:37:01;;;;;;;4.07;1.13;;;;;;;5.46;100.00;96225.59;5055655;28;20038;-75
2022/09/19 02:39:57;;;;;;;5.43;0.80;;;;;;;5.45;100.00;96223.94;5051393;28;20041;-76
2022/09/19 02:42:44;;;;;;;3.80;0.93;;;;;;;5.52;100.00;96221.66;5061683;28;20537;-75
2022/09/19 02:45:18;;;;;;;2.63;0.70;;;;;;;5.48;100.00;96209.81;5067469;28;20115;-75
2022/09/19 02:48:03;;;;;;;1.67;0.60;;;;;;;5.53;100.00;96220.69;5053042;28;20086;-75
2022/09/19 02:50:59;;;;;;;1.47;0.60;;;;;;;5.56;100.00;96212.59;5052892;28;20032;-75
2022/09/19 02:53:37;;;;;;;2.17;0.50;;;;;;;5.56;100.00;96223.03;5043191;28;20486;-75
2022/09/19 02:56:04;;;;;;;3.00;0.60;;;;;;;5.54;100.00;96222.38;5058424;28;20115;-75
2022/09/19 02:58:48;;;;;;;1.60;0.60;;;;;;;5.50;100.00;96221.78;5058933;28;20105;-76
2022/09/19 03:01:21;;;;;;;2.10;0.70;;;;;;;5.54;100.00;96228.41;5044534;28;20021;-75
2022/09/19 03:04:14;;;;;;;2.00;0.60;;;;;;;5.60;100.00;96229.66;5030979;28;20122;-75
2022/09/19 03:06:53;;;;;;;7.53;0.70;;;;;;;5.65;100.00;96227.50;5035533;28;20036;-75
2022/09/19 03:09:24;;;;;;;1.70;0.60;;;;;;;5.66;100.00;96231.75;5035822;28;20060;-76
2022/09/19 03:12:02;;;;;;;2.77;0.77;;;;;;;5.67;100.00;96230.81;5019431;28;20068;-75
2022/09/19 03:14:30;;;;;;;3.47;0.80;;;;;;;5.67;100.00;96236.84;5052248;28;20102;-76
2022/09/19 03:16:59;;;;;;;4.10;0.90;;;;;;;5.71;100.00;96237.41;5055777;28;20032;-76
2022/09/19 03:19:27;;;;;;;1.13;0.50;;;;;;;5.68;100.00;96235.06;5052892;28;20044;-75
2022/09/19 03:21:54;;;;;;;2.63;0.57;;;;;;;5.69;100.00;96234.09;5053651;28;20020;-75
2022/09/19 03:24:22;;;;;;;2.03;0.90;;;;;;;5.74;100.00;96239.78;5014657;28;20032;-76
2022/09/19 03:26:49;;;;;;;2.63;0.80;;;;;;;5.81;100.00;96235.69;4992780;28;20041;-75
2022/09/19 03:29:15;;;;;;;1.37;0.70;;;;;;;5.77;100.00;96246.50;5008340;28;20024;-74
2022/09/19 03:31:50;;;;;;;2.55;0.60;;;;;;;5.75;100.00;96249.25;4977712;28;22661;-75
2022/09/19 03:34:18;;;;;;;4.10;1.00;;;;;;;5.79;100.00;96247.19;4947210;28;20047;-74
2022/09/19 03:36:46;;;;;;;2.03;0.70;;;;;;;5.83;100.00;96245.97;4958635;28;20032;-75
2022/09/19 03:39:17;;;;;;;1.93;0.77;;;;;;;5.83;100.00;96248.59;4968242;28;20123;-75
2022/09/19 03:41:44;;;;;;;4.17;0.87;;;;;;;5.81;100.00;96251.34;4943187;28;20043;-75
2022/09/19 03:44:11;;;;;;;3.00;1.40;;;;;;;5.89;100.00;96248.06;4932454;28;20474;-76
2022/09/19 03:46:38;;;;;;;2.87;0.60;;;;;;;5.90;100.00;96255.78;4980767;28;22160;-75
2022/09/19 03:49:04;;;;;;;5.90;1.13;;;;;;;5.94;100.00;96247.75;4961956;28;20028;-75
2022/09/19 03:51:32;;;;;;;2.10;0.70;;;;;;;5.96;100.00;96240.59;4952404;28;22011;-75
2022/09/19 03:54:00;;;;;;;4.63;1.30;;;;;;;5.96;100.00;96245.81;4974832;28;20036;-76
2022/09/19 03:56:32;;;;;;;5.60;2.57;;;;;;;5.90;100.00;96255.78;4981050;28;20025;-75
2022/09/19 03:58:58;;;;;;;9.53;1.63;;;;;;;6.01;100.00;96264.53;4994627;28;21611;-76
2022/09/19 04:01:26;;;;;;;4.27;1.17;;;;;;;5.99;100.00;96271.66;5009022;28;20083;-75
2022/09/19 04:03:55;;;;;;;3.50;1.00;;;;;;;6.02;100.00;96276.63;5021192;28;20056;-75
2022/09/19 04:06:21;;;;;;;2.87;1.10;;;;;;;6.04;100.00;96285.16;5036204;28;20032;-75
2022/09/19 04:08:47;;;;;;;5.67;1.83;;;;;;;6.05;100.00;96297.25;5032074;28;20181;-75
2022/09/19 04:11:14;;;;;;;2.10;1.10;;;;;;;6.04;100.00;96291.19;5053204;28;20433;-75
2022/09/19 04:13:40;;;;;;;5.37;0.97;;;;;;;6.06;100.00;96298.88;5052391;28;20036;-75
2022/09/19 04:16:17;;;;;;;4.80;2.07;;;;;;;6.14;100.00;96299.09;5035394;28;20024;-75
2022/09/19 04:18:47;;;;;;;15.30;2.40;;;;;;;6.12;100.00;96298.38;5053337;28;20137;-75
2022/09/19 04:21:27;;;;;;;5.43;1.30;;;;;;;6.13;100.00;96297.41;5038508;28;20436;-75
2022/09/19 04:24:13;;;;;;;4.47;1.00;;;;;;;6.19;100.00;96299.50;5037946;28;20032;-75
2022/09/19 04:27:02;;;;;;;3.90;0.93;;;;;;;6.20;100.00;96306.38;5056118;28;21708;-75
2022/09/19 04:29:28;;;;;;;4.33;1.40;;;;;;;6.22;100.00;96303.66;5052812;28;20828;-75
2022/09/19 04:31:54;;;;;;;7.00;1.13;;;;;;;6.14;100.00;96315.56;5053829;28;20036;-74
2022/09/19 04:34:20;;;;;;;5.53;1.27;;;;;;;6.19;100.00;96314.34;5039384;28;20056;-75
2022/09/19 04:36:49;;;;;;;6.63;0.93;;;;;;;6.19;100.00;96319.56;5039330;28;20087;-75
2022/09/19 04:39:15;;;;;;;6.90;1.10;;;;;;;6.17;100.00;96319.72;5062777;28;20060;-74
2022/09/19 04:41:40;;;;;;;6.43;1.17;;;;;;;6.24;100.00;96320.03;5074984;28;20537;-75
2022/09/19 04:44:07;;;;;;;8.57;1.90;;;;;;;6.23;100.00;96320.97;5059245;28;20033;-75
2022/09/19 04:46:50;;;;;;;5.83;1.47;;;;;;;6.25;100.00;96332.94;5058634;28;20039;-74
2022/09/19 04:49:17;;;;;;;4.80;1.50;;;;;;;6.27;100.00;96331.03;5058936;28;20396;-74
2022/09/19 04:51:43;;;;;;;5.70;1.10;;;;;;;6.28;100.00;96337.06;5060602;28;20025;-75
2022/09/19 04:54:10;;;;;;;4.43;1.47;;;;;;;6.25;100.00;96332.13;5062130;28;20059;-75
2022/09/19 04:56:36;;;;;;;4.70;1.43;;;;;;;6.29;100.00;96330.88;5066029;28;20674;-75
2022/09/19 04:59:03;;;;;;;4.80;1.07;;;;;;;6.24;100.00;96328.69;5046093;28;20493;-75
2022/09/19 05:01:30;;;;;;;5.77;1.23;;;;;;;6.28;100.00;96332.69;5047449;28;20047;-75
2022/09/19 05:03:57;;;;;;;2.90;1.30;;;;;;;6.32;100.00;96330.63;5065102;28;20032;-74
2022/09/19 05:06:27;;;;;;;8.67;1.87;;;;;;;6.28;100.00;96334.47;5059185;28;20478;-75
2022/09/19 05:08:54;;;;;;;3.70;1.17;;;;;;;6.24;100.00;96331.28;5065812;28;20028;-75
2022/09/19 05:11:33;;;;;;;4.27;1.10;;;;;;;6.32;100.00;96330.63;5053785;28;20509;-75
2022/09/19 05:14:00;;;;;;;3.40;1.00;;;;;;;6.37;100.00;96342.34;5068389;28;20041;-75
2022/09/19 05:16:27;;;;;;;4.40;1.47;;;;;;;6.36;100.00;96355.53;5062932;28;20646;-75
2022/09/19 05:18:57;;;;;;;4.03;1.30;;;;;;;6.35;100.00;96346.03;5048444;28;21133;-75
2022/09/19 05:21:23;;;;;;;3.73;1.17;;;;;;;6.40;100.00;96341.25;5065198;28;20032;-75
2022/09/19 05:23:50;;;;;;;6.63;1.50;;;;;;;6.38;100.00;96357.06;5061376;28;20429;-75
2022/09/19 05:26:16;;;;;;;15.10;1.90;;;;;;;6.37;100.00;96363.25;5039139;28;20493;-75
2022/09/19 05:28:47;;;;;;;6.43;1.40;;;;;;;6.41;100.00;96360.38;5027147;28;20032;-76
2022/09/19 05:31:18;;;;;;;7.27;1.60;;;;;;;6.42;100.00;96359.41;5017835;28;20119;-75
2022/09/19 05:34:01;;;;;;;5.10;1.93;;;;;;;6.40;100.00;96359.53;5016798;28;20037;-75
2022/09/19 05:36:30;;;;;;;8.90;2.30;;;;;;;6.46;100.00;96359.00;5012114;28;20751;-75
2022/09/19 05:39:25;;;;;;;5.90;1.83;;;;;;;6.52;100.00;96368.13;5008070;28;20086;-75
2022/09/19 05:41:54;;;;;;;5.53;2.10;;;;;;;6.52;100.00;96365.50;5011008;28;20036;-75
2022/09/19 05:44:23;;;;;;;7.23;2.00;;;;;;;6.48;100.00;96367.56;5005240;28;20032;-75
2022/09/19 05:46:53;;;;;;;9.00;2.30;;;;;;;6.49;100.00;96379.66;5015328;28;20024;-76
2022/09/19 05:49:19;;;;;;;7.77;2.37;;;;;;;6.53;100.00;96380.22;5017922;28;20393;-75
2022/09/19 05:51:45;;;;;;;5.17;1.93;;;;;;;6.53;100.00;96386.25;4994068;28;20029;-74
2022/09/19 05:54:16;;;;;;;6.40;1.53;;;;;;;6.57;100.00;96389.44;5023482;28;20464;-75
2022/09/19 05:57:08;;;;;;;9.93;1.70;;;;;;;6.64;100.00;96393.22;5019406;28;21481;-74
2022/09/19 05:59:35;;;;;;;9.80;1.63;;;;;;;6.56;100.00;96396.47;4990883;28;20385;-75
2022/09/19 06:02:01;;;;;;;8.83;1.87;;;;;;;6.55;100.00;96405.25;4972801;28;20021;-75
2022/09/19 06:04:44;;;;;;;6.90;1.70;;;;;;;6.66;100.00;96406.97;4985026;28;20030;-75
2022/09/19 06:07:11;;;;;;;11.33;2.17;;;;;;;6.60;100.00;96400.47;4996001;28;20560;-75
2022/09/19 06:09:37;;;;;;;7.57;1.73;;;;;;;6.75;100.00;96410.59;5012400;28;20033;-75
2022/09/19 06:12:04;;;;;;;11.17;2.20;;;;;;;6.74;100.00;96412.38;5003265;28;20182;-75
2022/09/19 06:14:31;;;;;;;8.53;1.97;;;;;;;6.75;100.00;96411.41;5030496;28;20495;-75
2022/09/19 06:17:00;;;;;;;5.37;2.30;;;;;;;6.80;100.00;96416.22;5019739;28;21091;-75
2022/09/19 06:19:26;;;;;;;6.80;1.73;;;;;;;6.92;100.00;96417.81;5033201;28;20036;-74
2022/09/19 06:22:27;;;;;;;8.00;2.23;;;;;;;6.93;100.00;96424.69;4993697;28;20039;-76
2022/09/19 06:24:55;;;;;;;9.27;2.40;;;;;;;6.98;100.00;96416.47;4964053;28;20128;-76
2022/09/19 06:27:21;;;;;;;5.17;1.63;;;;;;;6.99;100.00;96418.09;4972556;28;20474;-76
2022/09/19 06:29:47;;;;;;;7.20;2.57;;;;;;;7.00;100.00;96417.94;4988928;28;20029;-76
2022/09/19 06:32:22;;;;;;;7.03;1.53;;;;;;;6.89;100.00;96417.25;5008147;28;20037;-76
2022/09/19 06:35:00;;;;;;;21.20;3.83;;;;;;;6.88;100.00;96426.06;5002020;28;20028;-77
2022/09/19 06:37:31;;;;;;;6.33;1.73;;;;;;;6.93;100.00;96426.47;4984602;28;20036;-76
2022/09/19 06:39:57;;;;;;;5.13;1.37;;;;;;;7.03;100.00;96424.72;4985684;28;20024;-76
2022/09/19 06:42:42;;;;;;;7.90;2.00;;;;;;;6.99;100.00;96429.38;4983172;28;20075;-76
2022/09/19 06:45:26;;;;;;;11.57;2.10;;;;;;;7.06;100.00;96429.69;4985056;28;20761;-77
2022/09/19 06:48:11;;;;;;;9.07;1.87;;;;;;;7.12;100.00;96444.84;4983008;28;20036;-76
2022/09/19 06:50:46;;;;;;;12.60;2.07;;;;;;;7.08;100.00;96443.47;4996333;28;20037;-76
2022/09/19 06:53:14;;;;;;;11.07;2.07;;;;;;;7.16;100.00;96451.47;5044526;28;20032;-76
2022/09/19 06:55:41;;;;;;;5.67;1.73;;;;;;;7.17;100.00;96450.50;5043563;28;20043;-76
2022/09/19 06:58:11;;;;;;;12.43;3.23;;;;;;;7.20;100.00;96452.84;5035274;28;20123;-77
2022/09/19 07:00:38;;;;;;;8.63;2.03;;;;;;;7.11;100.00;96455.44;5034980;28;20032;-78
2022/09/19 07:03:09;;;;;;;9.00;2.37;;;;;;;7.20;100.00;96460.69;5021248;28;20082;-76
2022/09/19 07:05:38;;;;;;;7.07;1.63;;;;;;;7.30;100.00;96445.84;5039825;28;20094;-76
2022/09/19 07:08:20;;;;;;;8.40;1.97;;;;;;;7.25;100.00;96461.13;5055055;28;20036;-76
2022/09/19 07:10:47;;;;;;;7.53;2.00;;;;;;;7.37;100.00;96459.22;5039628;28;20655;-77
2022/09/19 07:13:14;;;;;;;7.80;1.60;;;;;;;7.29;100.00;96459.91;5039175;28;20020;-76
2022/09/19 07:15:41;;;;;;;12.27;2.30;;;;;;;7.41;100.00;96460.63;5036575;28;20024;-75
2022/09/19 07:18:11;;;;;;;8.03;1.67;;;;;;;7.32;100.00;96470.09;5054537;28;20401;-76
2022/09/19 07:20:39;;;;;;;12.13;2.53;;;;;;;7.42;100.00;96469.31;5039515;28;20039;-76
2022/09/19 07:23:15;;;;;;;9.83;2.30;;;;;;;7.38;100.00;96473.13;5055335;28;20028;-76
2022/09/19 07:26:02;;;;;;;6.67;2.10;;;;;;;7.41;100.00;96475.47;5055641;28;21267;-76
2022/09/19 07:28:28;;;;;;;15.30;3.20;;;;;;;7.49;100.00;96478.28;5049430;28;20043;-76
2022/09/19 07:30:57;;;;;;;8.30;3.60;;;;;;;7.50;100.00;96477.31;5049110;28;20032;-76
2022/09/19 07:33:24;;;;;;;8.30;1.87;;;;;;;7.49;100.00;96478.28;5044914;28;20043;-76
2022/09/19 07:35:53;;;;;;;7.50;2.03;;;;;;;7.60;100.00;96479.94;5027680;28;20033;-77
2022/09/19 07:38:21;;;;;;;10.87;2.23;;;;;;;7.64;100.00;96491.78;5026577;28;20493;-76
2022/09/19 07:41:07;;;;;;;10.83;2.33;;;;;;;7.69;100.00;96487.00;5027652;28;20036;-76
2022/09/19 07:43:40;;;;;;;9.93;2.25;;;;;;;7.68;100.00;96486.19;5022937;28;20044;-75
2022/09/19 07:46:26;;;;;;;8.67;2.53;;;;;;;7.73;100.00;96491.00;5026192;28;20509;-76
2022/09/19 07:49:05;;;;;;;6.93;2.07;;;;;;;7.66;100.00;96498.56;5024051;28;20048;-76
2022/09/19 07:51:52;;;;;;;10.57;2.83;;;;;;;7.62;100.00;96498.97;5010476;28;20037;-77
2022/09/19 07:54:17;;;;;;;7.13;2.40;;;;;;;7.64;100.00;96505.72;5027630;28;20071;-76
2022/09/19 07:56:44;;;;;;;9.07;2.93;;;;;;;7.64;100.00;96512.72;5023501;28;20047;-75
2022/09/19 07:59:10;;;;;;;8.87;2.30;;;;;;;7.72;100.00;96516.34;5019565;28;20067;-76
2022/09/19 08:01:58;;;;;;;6.60;1.93;;;;;;;7.73;100.00;96519.78;5012810;28;20028;-76
2022/09/19 08:04:31;;;;;;;10.00;3.17;;;;;;;7.78;100.00;96518.44;5019316;28;20036;-76
2022/09/19 08:06:59;;;;;;;10.00;2.40;;;;;;;7.65;100.00;96524.88;5027962;28;20413;-77
2022/09/19 08:09:24;;;;;;;8.10;2.10;;;;;;;7.72;100.00;96531.22;5021570;28;20029;-76
2022/09/19 08:11:53;;;;;;;11.30;2.30;;;;;;;7.76;100.00;96530.81;5020432;28;20764;-76
2022/09/19 08:14:19;;;;;;;13.83;3.07;;;;;;;7.83;100.00;96528.50;5024538;28;20036;-75
2022/09/19 08:16:45;;;;;;;9.63;2.33;;;;;;;7.89;100.00;96532.38;5006612;28;20033;-76
2022/09/19 08:19:12;;;;;;;7.03;2.33;;;;;;;7.86;100.00;96536.09;5022561;28;20059;-76
2022/09/19 08:21:39;;;;;;;12.27;2.10;;;;;;;8.09;100.00;96528.81;5023216;28;20028;-75
2022/09/19 08:24:05;;;;;;;5.07;2.27;;;;;;;8.25;100.00;96538.75;5006489;28;20040;-76
2022/09/19 08:26:31;;;;;;;8.70;2.63;;;;;;;8.31;100.00;96530.31;5021922;28;20028;-74
2022/09/19 08:28:57;;;;;;;8.40;2.90;;;;;;;8.42;100.00;96538.09;5041301;28;20036;-75
2022/09/19 08:31:27;;;;;;;7.87;2.80;;;;;;;8.66;100.00;96535.03;5048690;28;22387;-74
2022/09/19 08:33:53;;;;;;;8.90;2.60;;;;;;;8.57;100.00;96533.25;5026161;28;20111;-75
2022/09/19 08:36:19;;;;;;;9.37;2.30;;;;;;;8.60;100.00;96532.16;5047988;28;20020;-75
2022/09/19 08:38:49;;;;;;;9.97;2.40;;;;;;;8.78;100.00;96527.00;5055594;28;20039;-75
2022/09/19 08:41:38;;;;;;;12.13;2.53;;;;;;;8.84;100.00;96534.31;5058559;28;20241;-76
2022/09/19 08:44:13;;;;;;;4.63;1.80;;;;;;;8.96;100.00;96533.19;5050680;28;20028;-76
2022/09/19 08:46:55;;;;;;;9.27;2.47;;;;;;;9.05;100.00;96536.75;5024424;28;20044;-75
2022/09/19 08:49:27;;;;;;;7.10;1.90;;;;;;;8.96;100.00;96541.06;5040755;28;20025;-75
2022/09/19 08:52:12;;;;;;;8.53;2.50;;;;;;;8.76;100.00;96547.31;5042293;28;20038;-75
2022/09/19 08:54:42;;;;;;;7.00;2.50;;;;;;;8.74;100.00;96544.81;5041870;28;20047;-75
2022/09/19 08:57:28;;;;;;;9.93;2.40;;;;;;;8.80;100.00;96559.19;5049280;28;20085;-75
2022/09/19 09:00:14;;;;;;;8.83;1.87;;;;;;;9.01;100.00;96546.69;5024097;28;20066;-75
2022/09/19 09:02:58;;;;;;;8.43;2.47;;;;;;;8.97;100.00;96550.59;5038121;28;20578;-75
2022/09/19 09:05:44;;;;;;;25.77;11.73;;;;;;;8.98;100.00;96557.47;5022248;28;20033;-75
2022/09/19 09:08:43;;;;;;;11.90;3.90;;;;;;;8.77;100.00;96565.53;5019092;28;20040;-75
2022/09/19 09:11:51;;;;;;;9.00;2.07;;;;;;;8.93;100.00;96567.59;5021736;28;20027;-75
2022/09/19 09:14:29;;;;;;;5.53;2.10;;;;;;;8.86;100.00;96561.25;5018101;28;20036;-75
2022/09/19 09:17:16;;;;;;;9.53;2.00;;;;;;;8.78;100.00;96566.34;5043963;28;20032;-75
2022/09/19 09:19:50;;;;;;;9.83;1.97;;;;;;;8.59;100.00;96573.28;5045473;28;20036;-75
2022/09/19 09:22:25;;;;;;;8.85;2.35;;;;;;;8.73;100.00;96577.25;5041743;28;20124;-76
2022/09/19 09:25:13;;;;;;;11.83;3.07;;;;;;;8.86;100.00;96576.97;5030632;28;20415;-75
2022/09/19 09:27:47;;;;;;;10.57;2.28;;;;;;;8.82;100.00;96575.59;5037435;28;20041;-74
2022/09/19 09:30:23;;;;;;;6.37;1.83;;;;;;;8.89;100.00;96574.91;5058366;28;20032;-75
2022/09/19 09:33:27;;;;;;;5.35;1.73;;;;;;;8.88;100.00;96575.03;5073298;28;20132;-75
2022/09/19 09:36:15;;;;;;;12.23;1.90;;;;;;;8.88;100.00;96577.66;5025542;28;20119;-76
2022/09/19 09:38:52;;;;;;;10.23;2.90;;;;;;;9.06;100.00;96575.97;5017547;28;20060;-76
2022/09/19 09:41:49;;;;;;;6.80;2.47;;;;;;;9.07;100.00;96575.00;4998159;28;20041;-75
2022/09/19 09:44:26;;;;;;;8.63;3.27;;;;;;;9.19;100.00;96570.44;5000018;28;20032;-76
2022/09/19 09:47:18;;;;;;;8.30;2.10;;;;;;;9.55;100.00;96566.13;4995145;28;20033;-76
2022/09/19 09:49:44;;;;;;;9.47;3.47;;;;;;;9.57;100.00;96563.38;4980425;28;20051;-76
2022/09/19 09:52:31;;;;;;;8.77;3.67;;;;;;;9.53;100.00;96562.84;5000402;28;20024;-75
2022/09/19 09:58:17;;;;;;;8.67;1.97;;;;;;;10.14;100.00;96559.59;4988214;28;20464;-75
2022/09/19 10:04:02;;;;;;;9.17;1.77;;;;;;;9.81;100.00;96571.56;4968120;28;20024;-75
2022/09/19 10:07:09;;;;;;;5.50;1.50;;;;;;;9.74;100.00;96564.41;4980843;28;20103;-77
2022/09/19 10:09:51;;;;;;;5.57;1.67;;;;;;;10.08;100.00;96562.81;4996961;28;20570;-77
2022/09/19 10:12:33;;;;;;;7.23;3.60;;;;;;;10.33;100.00;96565.75;4990691;28;20032;-75
2022/09/19 10:15:03;;;;;;;6.13;2.07;;;;;;;10.39;100.00;96565.13;4998450;28;20035;-75
2022/09/19 10:17:40;;;;;;;9.03;2.90;;;;;;;10.41;100.00;96563.19;4979825;28;20025;-76
2022/09/19 10:20:18;;;;;;;7.35;2.10;;;;;;;10.18;100.00;96567.19;4968379;28;20075;-76
2022/09/19 10:22:46;;;;;;;4.63;1.77;;;;;;;10.32;100.00;96558.81;4966113;28;20037;-76
2022/09/19 10:25:16;;;;;;;7.83;2.13;;;;;;;10.24;100.00;96569.25;4962368;28;20101;-75
2022/09/19 10:27:43;;;;;;;5.83;1.67;;;;;;;10.24;100.00;96575.31;4956147;28;20042;-76
2022/09/19 10:30:37;;;;;;;9.07;2.03;;;;;;;10.15;100.00;96566.50;4997929;28;20482;-76
2022/09/19 10:33:44;;;;;;;11.83;4.33;;;;;;;10.15;100.00;96574.41;5006130;28;20039;-75
2022/09/19 10:36:25;;;;;;;10.13;2.70;;;;;;;10.00;100.00;96568.00;5014639;28;20024;-75
2022/09/19 10:38:55;;;;;;;6.13;1.60;;;;;;;9.85;100.00;96575.53;5017709;28;22551;-76
2022/09/19 10:41:25;;;;;;;6.70;1.50;;;;;;;9.93;100.00;96576.63;5036317;28;20040;-75
2022/09/19 10:43:59;;;;;;;3.93;1.33;;;;;;;10.06;100.00;96577.06;5042888;28;20036;-76
2022/09/19 10:46:36;;;;;;;10.20;2.23;;;;;;;10.22;100.00;96579.06;5048942;28;20033;-76
2022/09/19 10:49:36;;;;;;;6.67;1.57;;;;;;;10.20;100.00;96581.03;5060408;28;20082;-76
2022/09/19 10:52:02;;;;;;;10.93;2.03;;;;;;;10.34;100.00;96577.91;5061599;28;20514;-76
2022/09/19 10:54:39;;;;;;;6.33;1.47;;;;;;;10.26;100.00;96575.19;5051517;28;20417;-76
2022/09/19 10:57:32;;;;;;;8.37;2.20;;;;;;;10.08;100.00;96577.78;5037795;28;20025;-76
2022/09/19 11:00:03;;;;;;;6.60;1.83;;;;;;;10.00;100.00;96588.19;5036720;28;20032;-76
2022/09/19 11:02:34;;;;;;;9.03;1.90;;;;;;;9.85;100.00;96582.59;5015304;28;20024;-76
2022/09/19 11:05:04;;;;;;;6.70;2.00;;;;;;;9.91;100.00;96592.53;5019294;28;21571;-76
2022/09/19 11:07:59;;;;;;;7.03;2.20;;;;;;;9.99;100.00;96597.84;5016653;28;20028;-76
2022/09/19 11:10:41;;;;;;;3.63;1.73;;;;;;;10.08;100.00;96589.09;5004796;28;21215;-76
2022/09/19 11:13:20;;;;;;;7.00;1.77;;;;;;;10.41;100.00;96594.75;5024073;28;20112;-76
2022/09/19 11:16:23;;;;;;;6.23;2.07;;;;;;;10.76;100.00;96583.38;5018432;28;21543;-77
2022/09/19 11:18:53;;;;;;;9.50;2.43;;;;;;;10.70;100.00;96588.44;5018989;28;20386;-75
2022/09/19 11:21:50;;;;;;;7.90;2.20;;;;;;;10.87;100.00;96579.72;5030674;28;20033;-76
2022/09/19 11:24:38;;;;;;;5.23;1.53;;;;;;;10.62;100.00;96582.13;5019931;28;20075;-76
2022/09/19 11:27:32;;;;;;;5.97;1.50;;;;;;;10.72;100.00;96583.84;5009257;28;20037;-76
2022/09/19 11:30:11;;;;;;;6.83;1.40;;;;;;;10.85;100.00;96573.75;5019166;28;20752;-76
2022/09/19 11:32:50;;;;;;;5.43;1.50;;;;;;;10.90;100.00;96579.41;5015936;28;20040;-77
2022/09/19 11:35:36;;;;;;;7.80;2.97;;;;;;;11.06;100.00;96574.22;5033972;28;20039;-76
2022/09/19 11:38:02;;;;;;;6.27;1.90;;;;;;;11.00;100.00;96574.88;5032722;28;20037;-76
2022/09/19 11:41:06;;;;;;;8.03;3.33;;;;;;;10.93;100.00;96568.56;5033679;28;20028;-76
2022/09/19 11:43:52;;;;;;;5.32;1.40;;;;;;;10.98;100.00;96576.81;5003885;28;21025;-76
2022/09/19 11:46:49;;;;;;;5.17;1.53;;;;;;;10.91;100.00;96567.06;4969479;28;20028;-77
2022/09/19 11:49:51;;;;;;;9.17;1.67;;;;;;;11.15;100.00;96577.75;4976091;28;20037;-76
2022/09/19 11:52:35;;;;;;;5.87;1.43;;;;;;;11.48;100.00;96576.16;4999920;28;20032;-76
2022/09/19 11:55:21;;;;;;;7.50;2.13;;;;;;;11.57;100.00;96572.59;4970805;28;20036;-77
2022/09/19 11:58:12;;;;;;;6.50;1.40;;;;;;;11.69;100.00;96574.94;4979566;28;20044;-77
2022/09/19 12:01:03;;;;;;;8.57;1.65;;;;;;;12.08;100.00;96570.03;4997224;28;20025;-77
2022/09/19 12:04:09;;;;;;;4.90;1.33;;;;;;;11.91;100.00;96558.59;5004440;28;20098;-76
2022/09/19 12:07:02;;;;;;;7.63;1.93;;;;;;;12.04;100.00;96563.44;5015340;28;20040;-77
2022/09/19 12:09:51;;;;;;;4.90;1.17;;;;;;;12.62;100.00;96551.16;4993004;28;20159;-76
2022/09/19 12:12:21;;;;;;;5.40;1.40;;;;;;;12.76;100.00;96550.50;4997783;28;20040;-76
2022/09/19 12:15:13;;;;;;;;;;;;;;;12.26;100.00;96546.16;5032413;28;20029;-76
2022/09/19 12:17:43;;;;;;;6.00;1.50;;;;;;;12.28;100.00;96552.13;5019689;28;19947;-75